Terminal Aerodrome Forecast
Issued by NWS Hastings, NE

Home | Current Version | Previous Version | Text Only | Print | Product List | Glossary On
Versions: 1 2 3 4 5 6 7 8 9 10 11 12 13 14 15 16 17 18 19
000
FTUS43 KGID 221120
TAFGRI
TAF
KGRI 221120Z 2212/2312 16013KT P6SM SCT250 WS012/21040KT
     FM221500 18015G21KT P6SM BKN100
     FM221800 20014G20KT 6SM -SHRA VCTS SCT020 BKN040CB
     FM222200 22006KT P6SM SCT020 BKN040
     FM230200 VRB05KT P6SM SCT200
     FM230800 VRB04KT 6SM BR SCT001 SCT100=

USA.gov is the U.S. government's official web portal to all federal, state and local government web resources and services.